createdAt,value
2022-11-29T00:01:54.211Z,87.40
2022-11-29T00:04:22.823Z,87.15
2022-11-29T00:06:51.353Z,87.25
2022-11-29T00:09:19.810Z,87.06
2022-11-29T00:12:06.665Z,87.19
2022-11-29T00:14:35.283Z,87.54
2022-11-29T00:17:04.621Z,87.15
2022-11-29T00:19:36.374Z,87.20
2022-11-29T00:22:05.397Z,87.09
2022-11-29T00:24:34.756Z,87.83
2022-11-29T00:27:03.401Z,87.96
2022-11-29T00:29:32.188Z,88.59
2022-11-29T00:32:00.722Z,88.22
2022-11-29T00:34:29.378Z,88.03
2022-11-29T00:36:59.168Z,89.03
2022-11-29T00:39:27.769Z,88.64
2022-11-29T00:41:56.492Z,88.94
2022-11-29T00:44:25.001Z,89.05
2022-11-29T00:46:53.583Z,88.82
2022-11-29T00:49:22.170Z,89.11
2022-11-29T00:51:50.869Z,88.61
2022-11-29T00:54:19.310Z,88.79
2022-11-29T00:56:47.846Z,88.76
2022-11-29T00:59:16.476Z,88.90
2022-11-29T01:01:45.151Z,88.95
2022-11-29T01:04:13.752Z,88.87
2022-11-29T01:06:42.529Z,89.01
2022-11-29T01:09:11.046Z,88.95
2022-11-29T01:11:39.536Z,89.66
2022-11-29T01:14:08.128Z,89.56
2022-11-29T01:16:36.834Z,89.55
2022-11-29T01:19:07.445Z,89.83
2022-11-29T01:21:36.208Z,89.92
2022-11-29T01:24:05.080Z,89.98
2022-11-29T01:26:36.816Z,89.60
2022-11-29T01:29:05.459Z,89.74
2022-11-29T01:31:38.211Z,90.23
2022-11-29T01:34:07.778Z,90.50
2022-11-29T01:36:36.280Z,90.73
2022-11-29T01:39:06.587Z,90.00
2022-11-29T01:41:37.963Z,90.47
2022-11-29T01:44:26.679Z,90.49
2022-11-29T01:46:56.908Z,90.81
2022-11-29T01:49:45.540Z,90.98
2022-11-29T01:52:24.273Z,90.94
2022-11-29T01:54:58.575Z,90.89
2022-11-29T01:57:27.473Z,91.26
2022-11-29T02:00:08.838Z,91.27
2022-11-29T02:03:09.381Z,91.31
2022-11-29T02:05:49.497Z,90.87
2022-11-29T02:08:43.690Z,91.08
2022-11-29T02:11:31.951Z,91.23
2022-11-29T02:14:40.224Z,91.00
2022-11-29T02:17:54.068Z,91.20
2022-11-29T02:20:28.501Z,91.06
2022-11-29T02:23:19.587Z,92.05
2022-11-29T02:26:22.208Z,92.61
2022-11-29T02:29:40.724Z,92.84
2022-11-29T02:32:52.683Z,93.28
2022-11-29T02:35:36.366Z,92.84
2022-11-29T02:38:23.063Z,92.80
2022-11-29T02:41:00.431Z,93.13
2022-11-29T02:43:58.226Z,93.72
2022-11-29T02:46:57.716Z,94.55
2022-11-29T02:49:50.439Z,94.78
2022-11-29T02:52:27.674Z,94.97
2022-11-29T02:55:09.364Z,95.00
2022-11-29T02:57:50.628Z,94.97
2022-11-29T03:00:22.035Z,95.49
2022-11-29T03:03:14.752Z,95.58
2022-11-29T03:06:17.187Z,95.51
2022-11-29T03:09:06.353Z,94.74
2022-11-29T03:12:32.348Z,94.92
2022-11-29T03:15:22.371Z,95.57
2022-11-29T03:18:34.668Z,96.02
2022-11-29T03:21:27.437Z,95.82
2022-11-29T03:24:01.564Z,96.20
2022-11-29T03:26:39.436Z,95.87
2022-11-29T03:29:30.605Z,95.64
2022-11-29T03:32:34.301Z,96.45
2022-11-29T03:35:08.071Z,96.67
2022-11-29T03:38:21.401Z,96.57
2022-11-29T03:41:10.282Z,97.64
2022-11-29T03:44:10.396Z,96.43
2022-11-29T03:47:07.092Z,96.32
2022-11-29T03:49:49.859Z,96.56
2022-11-29T03:52:44.238Z,97.24
2022-11-29T03:55:52.815Z,97.09
2022-11-29T03:58:21.369Z,96.09
2022-11-29T04:00:49.814Z,95.87
2022-11-29T04:04:01.325Z,96.78
2022-11-29T04:07:14.915Z,97.20
2022-11-29T04:10:17.690Z,97.92
2022-11-29T04:13:26.631Z,97.37
2022-11-29T04:16:22.609Z,96.48
2022-11-29T04:19:15.507Z,96.99
2022-11-29T04:22:07.685Z,96.36
2022-11-29T04:24:54.753Z,96.06
2022-11-29T04:27:41.726Z,96.10
2022-11-29T04:30:19.502Z,96.11
2022-11-29T04:33:33.474Z,96.13
2022-11-29T04:36:51.715Z,96.29
2022-11-29T04:39:42.171Z,96.66
2022-11-29T04:42:45.354Z,97.54
2022-11-29T04:45:38.185Z,97.97
2022-11-29T04:48:37.991Z,99.09
2022-11-29T04:51:31.683Z,98.67
2022-11-29T04:54:15.367Z,98.06
2022-11-29T04:56:51.196Z,97.25
2022-11-29T04:59:37.016Z,97.17
2022-11-29T05:02:32.546Z,97.31
2022-11-29T05:05:07.585Z,97.94
2022-11-29T05:08:24.391Z,98.07
2022-11-29T05:11:04.216Z,97.49
2022-11-29T05:14:13.585Z,98.31
2022-11-29T05:17:09.074Z,97.10
2022-11-29T05:19:55.985Z,96.84
2022-11-29T05:22:47.068Z,96.81
2022-11-29T05:25:46.176Z,97.59
2022-11-29T05:28:41.712Z,96.93
2022-11-29T05:31:25.164Z,97.06
2022-11-29T05:34:12.367Z,96.93
2022-11-29T05:37:17.515Z,97.02
2022-11-29T05:40:39.784Z,97.57
2022-11-29T05:43:30.082Z,98.00
2022-11-29T05:46:36.660Z,97.90
2022-11-29T05:49:23.524Z,98.95
2022-11-29T05:52:16.369Z,99.46
2022-11-29T05:55:07.080Z,98.20
2022-11-29T06:02:02.146Z,98.93
2022-11-29T06:05:14.826Z,98.50
2022-11-29T06:08:16.636Z,98.49
2022-11-29T06:11:34.351Z,98.30
2022-11-29T06:14:08.203Z,98.61
2022-11-29T06:16:44.182Z,98.69
2022-11-29T06:19:40.826Z,98.76
2022-11-29T06:22:46.676Z,98.49
2022-11-29T06:25:38.436Z,98.20
2022-11-29T06:29:02.807Z,97.93
2022-11-29T06:31:51.176Z,98.78
2022-11-29T06:34:27.581Z,98.84
2022-11-29T06:37:28.464Z,99.77
2022-11-29T06:40:04.346Z,100.00
2022-11-29T06:42:36.382Z,100.00
2022-11-29T06:45:16.617Z,99.85
2022-11-29T06:48:02.780Z,99.92
2022-11-29T06:51:13.280Z,99.87
2022-11-29T06:54:08.973Z,97.24
2022-11-29T06:57:20.576Z,98.03
2022-11-29T06:59:57.523Z,98.28
2022-11-29T07:03:26.988Z,97.95
2022-11-29T07:05:57.537Z,97.40
2022-11-29T07:08:26.725Z,97.66
2022-11-29T07:10:56.268Z,97.14
2022-11-29T07:13:32.263Z,97.41
2022-11-29T07:16:57.319Z,97.87
2022-11-29T07:20:18.840Z,98.83
2022-11-29T07:23:11.789Z,98.22
2022-11-29T07:26:18.142Z,97.95
2022-11-29T07:29:32.915Z,97.98
2022-11-29T07:32:27.346Z,97.27
2022-11-29T07:35:21.768Z,97.69
2022-11-29T07:38:06.738Z,97.72
2022-11-29T07:40:57.067Z,97.59
2022-11-29T07:44:23.872Z,97.56
2022-11-29T07:46:52.548Z,97.61
2022-11-29T07:49:21.161Z,97.32
2022-11-29T07:51:51.271Z,97.58
2022-11-29T07:54:20.200Z,97.41
2022-11-29T07:56:48.918Z,97.18
2022-11-29T07:59:17.751Z,97.44
2022-11-29T08:01:46.551Z,97.05
2022-11-29T08:04:16.659Z,96.93
2022-11-29T08:06:46.531Z,96.77
2022-11-29T08:09:15.327Z,96.95
2022-11-29T08:14:59.944Z,97.09
2022-11-29T08:20:59.021Z,97.33
2022-11-29T08:23:27.612Z,97.11
2022-11-29T08:26:04.169Z,96.79
2022-11-29T08:28:59.406Z,96.90
2022-11-29T08:31:28.248Z,96.79
2022-11-29T08:34:07.126Z,96.78
2022-11-29T08:36:35.795Z,96.23
2022-11-29T08:39:09.287Z,96.54
2022-11-29T08:41:38.574Z,96.45
2022-11-29T08:44:07.873Z,96.80
2022-11-29T08:46:54.867Z,96.63
2022-11-29T08:49:23.702Z,96.86
2022-11-29T08:52:13.796Z,96.70
2022-11-29T08:54:44.062Z,96.83
2022-11-29T09:00:01.700Z,96.91
2022-11-29T09:02:30.377Z,97.02
2022-11-29T09:05:08.784Z,97.22
2022-11-29T09:07:39.007Z,96.68
2022-11-29T09:10:09.765Z,96.66
2022-11-29T09:12:40.726Z,96.90
2022-11-29T09:15:14.276Z,96.95
2022-11-29T09:17:42.929Z,97.07
2022-11-29T09:22:04.976Z,97.10
2022-11-29T09:27:47.822Z,97.18
2022-11-29T09:30:22.114Z,96.84
2022-11-29T09:32:52.467Z,96.89
2022-11-29T09:35:23.635Z,96.47
2022-11-29T09:38:21.666Z,96.36
2022-11-29T09:41:55.024Z,96.30
2022-11-29T09:45:01.226Z,95.79
2022-11-29T09:52:56.404Z,96.09
2022-11-29T09:56:26.937Z,95.88
2022-11-29T09:59:54.457Z,95.71
2022-11-29T10:06:39.542Z,94.78
2022-11-29T10:09:56.912Z,95.31
2022-11-29T10:12:46.838Z,94.78
2022-11-29T10:15:26.027Z,95.12
2022-11-29T10:18:16.531Z,95.44
2022-11-29T10:24:22.100Z,95.60
2022-11-29T10:27:01.637Z,96.01
2022-11-29T10:29:32.100Z,95.91
2022-11-29T10:32:09.978Z,96.49
2022-11-29T10:34:54.228Z,96.54
2022-11-29T10:37:25.689Z,95.79
2022-11-29T10:40:06.597Z,96.16
2022-11-29T10:42:52.682Z,96.20
2022-11-29T10:46:07.055Z,96.23
2022-11-29T10:48:44.704Z,95.77
2022-11-29T10:51:26.350Z,96.09
2022-11-29T10:54:43.376Z,96.39
2022-11-29T10:58:32.297Z,96.32
2022-11-29T11:01:08.037Z,96.08
2022-11-29T11:03:39.540Z,96.23
2022-11-29T11:06:43.487Z,96.20
2022-11-29T11:09:47.412Z,96.34
2022-11-29T11:12:16.259Z,96.29
2022-11-29T11:14:47.419Z,96.40
2022-11-29T11:17:22.862Z,95.94
2022-11-29T11:20:01.219Z,95.81
2022-11-29T11:24:10.910Z,96.16
2022-11-29T11:26:50.908Z,96.51
2022-11-29T11:32:37.399Z,96.55
2022-11-29T11:35:24.612Z,95.45
2022-11-29T11:37:57.787Z,95.66
2022-11-29T11:40:30.647Z,95.35
2022-11-29T11:43:03.604Z,95.94
2022-11-29T11:45:39.093Z,96.01
2022-11-29T11:48:26.336Z,95.76
2022-11-29T11:50:59.748Z,95.84
2022-11-29T11:53:36.571Z,95.91
2022-11-29T11:56:21.771Z,95.46
2022-11-29T11:58:58.648Z,95.66
2022-11-29T12:01:40.091Z,95.97
2022-11-29T12:04:26.332Z,95.70
2022-11-29T12:08:21.255Z,95.92
2022-11-29T12:12:04.198Z,95.91
2022-11-29T12:15:28.579Z,96.32
2022-11-29T12:19:10.528Z,95.86
2022-11-29T12:21:45.287Z,95.57
2022-11-29T12:24:28.888Z,94.78
2022-11-29T12:27:31.495Z,94.92
2022-11-29T12:30:01.248Z,95.17
2022-11-29T12:32:40.201Z,94.60
2022-11-29T12:35:35.281Z,95.05
2022-11-29T12:41:54.688Z,96.08
2022-11-29T12:44:45.248Z,95.99
2022-11-29T12:47:48.925Z,96.10
2022-11-29T12:51:05.383Z,95.50
2022-11-29T12:54:12.861Z,95.25
2022-11-29T12:57:40.852Z,95.46
2022-11-29T13:00:19.276Z,95.61
2022-11-29T13:03:34.135Z,95.95
2022-11-29T13:06:40.579Z,96.26
2022-11-29T13:09:53.820Z,96.27
2022-11-29T13:12:42.033Z,96.44
2022-11-29T13:15:17.407Z,96.26
2022-11-29T13:18:20.059Z,96.09
2022-11-29T13:21:04.797Z,96.45
2022-11-29T13:24:09.099Z,96.83
2022-11-29T13:26:41.649Z,97.06
2022-11-29T13:29:16.902Z,97.02
2022-11-29T13:31:48.067Z,96.91
2022-11-29T13:34:52.595Z,97.02
2022-11-29T13:37:41.492Z,97.00
2022-11-29T13:40:58.770Z,96.90
2022-11-29T13:43:49.356Z,97.04
2022-11-29T13:46:39.384Z,96.66
2022-11-29T13:49:58.378Z,97.01
2022-11-29T13:52:35.599Z,97.13
2022-11-29T13:55:23.667Z,97.08
2022-11-29T13:58:16.643Z,97.16
2022-11-29T14:00:46.027Z,97.33
2022-11-29T14:03:26.213Z,97.08
2022-11-29T14:06:28.430Z,96.85
2022-11-29T14:11:54.582Z,96.80
2022-11-29T14:14:32.089Z,96.63
2022-11-29T14:17:34.131Z,96.38
2022-11-29T14:20:44.081Z,96.44
2022-11-29T14:23:12.627Z,96.49
2022-11-29T14:25:59.333Z,96.33
2022-11-29T14:28:39.263Z,96.15
2022-11-29T14:31:09.922Z,96.60
2022-11-29T14:34:10.098Z,96.44
2022-11-29T14:36:50.230Z,96.56
2022-11-29T14:39:50.360Z,96.47
2022-11-29T14:42:22.129Z,96.62
2022-11-29T14:45:04.872Z,96.80
2022-11-29T14:47:48.259Z,96.75
2022-11-29T14:50:33.120Z,96.91
2022-11-29T14:53:27.598Z,96.95
2022-11-29T14:56:31.888Z,97.21
2022-11-29T14:59:54.910Z,96.85
2022-11-29T15:02:48.798Z,96.86
2022-11-29T15:05:24.706Z,97.17
2022-11-29T15:08:19.373Z,97.09
2022-11-29T15:10:57.696Z,97.55
2022-11-29T15:13:33.438Z,98.48
2022-11-29T15:16:19.779Z,99.03
2022-11-29T15:18:54.138Z,98.87
2022-11-29T15:22:04.105Z,99.61
2022-11-29T15:24:32.760Z,99.15
2022-11-29T15:27:04.156Z,98.76
2022-11-29T15:29:32.701Z,99.88
2022-11-29T15:32:06.055Z,98.96
2022-11-29T15:34:40.586Z,99.08
2022-11-29T15:37:50.816Z,99.05
2022-11-29T15:40:23.237Z,99.55
2022-11-29T15:43:02.561Z,99.64
2022-11-29T15:45:37.576Z,99.44
2022-11-29T15:48:28.234Z,99.62
2022-11-29T15:51:02.690Z,99.69
2022-11-29T15:54:00.379Z,99.93
2022-11-29T15:56:49.241Z,99.95
2022-11-29T15:59:49.159Z,99.75
2022-11-29T16:02:32.875Z,99.93
2022-11-29T16:05:22.611Z,99.93
2022-11-29T16:07:57.574Z,100.00
2022-11-29T16:10:43.664Z,100.00
2022-11-29T16:13:40.374Z,100.00
2022-11-29T16:16:19.336Z,100.00
2022-11-29T16:18:50.001Z,100.00
2022-11-29T16:21:29.383Z,100.00
2022-11-29T16:23:59.308Z,100.00
2022-11-29T16:26:33.650Z,100.00
2022-11-29T16:29:02.972Z,100.00
2022-11-29T16:31:38.437Z,100.00
2022-11-29T16:34:33.926Z,100.00
2022-11-29T16:37:14.588Z,100.00
2022-11-29T16:39:48.322Z,100.00
2022-11-29T16:42:25.903Z,100.00
2022-11-29T16:44:54.801Z,100.00
2022-11-29T16:47:26.891Z,100.00
2022-11-29T16:50:14.678Z,100.00
2022-11-29T16:52:43.609Z,100.00
2022-11-29T16:55:13.122Z,100.00
2022-11-29T16:57:41.965Z,100.00
2022-11-29T17:00:31.835Z,100.00
2022-11-29T17:03:00.790Z,100.00
2022-11-29T17:05:30.526Z,100.00
2022-11-29T17:07:59.358Z,100.00
2022-11-29T17:10:29.048Z,100.00
2022-11-29T17:12:57.616Z,100.00
2022-11-29T17:15:26.202Z,100.00
2022-11-29T17:17:54.743Z,100.00
2022-11-29T17:20:23.457Z,100.00
2022-11-29T17:22:54.834Z,100.00
2022-11-29T17:25:23.459Z,100.00
2022-11-29T17:27:52.033Z,100.00
2022-11-29T17:30:20.728Z,100.00
2022-11-29T17:32:49.218Z,100.00
2022-11-29T17:35:17.836Z,100.00
2022-11-29T17:37:46.496Z,100.00
2022-11-29T17:40:15.898Z,100.00
2022-11-29T17:42:44.392Z,100.00
2022-11-29T17:45:12.970Z,100.00
2022-11-29T17:47:41.412Z,100.00
2022-11-29T17:50:10.825Z,100.00
2022-11-29T17:52:39.925Z,99.97
2022-11-29T17:55:09.481Z,99.93
2022-11-29T17:57:38.064Z,99.82
2022-11-29T18:00:09.057Z,99.90
2022-11-29T18:02:37.925Z,99.95
2022-11-29T18:05:07.365Z,99.71
2022-11-29T18:07:55.952Z,99.74
2022-11-29T18:10:27.246Z,99.81
2022-11-29T18:12:56.505Z,99.99
2022-11-29T18:15:25.098Z,99.99
2022-11-29T18:17:53.632Z,99.80
2022-11-29T18:20:22.100Z,99.75
2022-11-29T18:22:53.496Z,99.70
2022-11-29T18:25:39.505Z,99.51
2022-11-29T18:28:08.811Z,99.25
2022-11-29T18:30:37.398Z,99.25
2022-11-29T18:33:06.153Z,99.30
2022-11-29T18:35:34.723Z,99.59
2022-11-29T18:38:18.371Z,99.84
2022-11-29T18:40:47.132Z,99.87
2022-11-29T18:43:17.034Z,99.97
2022-11-29T18:45:45.665Z,99.96
2022-11-29T18:48:14.237Z,100.00
2022-11-29T18:50:42.750Z,100.00
2022-11-29T18:53:11.336Z,99.96
2022-11-29T18:55:39.942Z,99.35
2022-11-29T18:58:08.536Z,98.96
2022-11-29T19:00:41.249Z,99.12
2022-11-29T19:03:10.317Z,99.23
2022-11-29T19:05:38.990Z,99.58
2022-11-29T19:08:08.160Z,99.55
2022-11-29T19:10:38.910Z,99.74
2022-11-29T19:13:08.640Z,99.52
2022-11-29T19:15:37.404Z,99.83
2022-11-29T19:18:06.296Z,99.51
2022-11-29T19:20:34.863Z,99.49
2022-11-29T19:23:03.991Z,99.49
2022-11-29T19:25:37.544Z,99.42
2022-11-29T19:28:33.589Z,99.42
2022-11-29T19:31:05.500Z,99.12
2022-11-29T19:33:37.018Z,99.56
2022-11-29T19:36:12.330Z,99.65
2022-11-29T19:38:43.299Z,99.65
2022-11-29T19:41:24.011Z,99.90
2022-11-29T19:43:54.544Z,99.82
2022-11-29T19:46:30.493Z,99.79
2022-11-29T19:49:06.279Z,99.95
2022-11-29T19:51:37.963Z,100.00
2022-11-29T19:54:09.382Z,100.00
2022-11-29T19:56:41.842Z,100.00
2022-11-29T19:59:13.035Z,99.98
2022-11-29T20:01:46.665Z,99.90
2022-11-29T20:04:17.452Z,99.82
2022-11-29T20:06:47.840Z,99.82
2022-11-29T20:09:16.591Z,99.77
2022-11-29T20:11:52.596Z,99.81
2022-11-29T20:14:21.700Z,99.86
2022-11-29T20:16:50.454Z,99.94
2022-11-29T20:19:20.763Z,99.82
2022-11-29T20:21:49.468Z,99.86
2022-11-29T20:24:19.593Z,99.83
2022-11-29T20:26:49.523Z,100.00
2022-11-29T20:29:19.415Z,99.97
2022-11-29T20:31:51.007Z,99.96
2022-11-29T20:34:20.997Z,100.00
2022-11-29T20:37:40.327Z,100.00
2022-11-29T20:40:47.601Z,100.00
2022-11-29T20:43:45.146Z,100.00
2022-11-29T20:46:18.570Z,100.00
2022-11-29T20:49:00.429Z,100.00
2022-11-29T20:51:47.001Z,100.00
2022-11-29T20:54:18.433Z,100.00
2022-11-29T20:56:47.022Z,99.99
2022-11-29T20:59:15.664Z,100.00
2022-11-29T21:01:48.104Z,100.00
2022-11-29T21:04:23.669Z,99.74
2022-11-29T21:06:52.507Z,99.19
2022-11-29T21:09:21.200Z,99.25
2022-11-29T21:11:50.143Z,99.21
2022-11-29T21:14:22.179Z,98.77
2022-11-29T21:16:51.815Z,98.80
2022-11-29T21:19:27.724Z,98.90
2022-11-29T21:22:17.555Z,98.95
2022-11-29T21:25:18.038Z,99.09
2022-11-29T21:27:47.646Z,98.57
2022-11-29T21:30:23.455Z,97.99
2022-11-29T21:32:52.796Z,98.24
2022-11-29T21:35:24.971Z,98.63
2022-11-29T21:38:02.637Z,98.42
2022-11-29T21:40:32.527Z,98.24
2022-11-29T21:43:01.123Z,97.95
2022-11-29T21:45:29.866Z,97.85
2022-11-29T21:48:01.526Z,98.14
2022-11-29T21:53:41.285Z,97.97
2022-11-29T21:56:12.456Z,97.12
2022-11-29T21:58:41.161Z,97.11
2022-11-29T22:04:33.271Z,97.28
2022-11-29T22:07:02.094Z,97.46
2022-11-29T22:09:32.037Z,97.29
2022-11-29T22:12:04.041Z,97.27
2022-11-29T22:14:46.322Z,97.32
2022-11-29T22:17:14.923Z,97.27
2022-11-29T22:19:46.026Z,97.31
2022-11-29T22:22:14.433Z,96.42
2022-11-29T22:24:43.017Z,96.72
2022-11-29T22:27:11.609Z,96.67
2022-11-29T22:29:40.222Z,96.91
2022-11-29T22:32:08.861Z,96.79
2022-11-29T22:34:39.265Z,96.94
2022-11-29T22:37:10.278Z,96.86
2022-11-29T22:39:38.839Z,96.86
2022-11-29T22:42:08.884Z,96.88
2022-11-29T22:44:38.234Z,96.94
2022-11-29T22:47:06.865Z,97.13
2022-11-29T22:49:40.721Z,97.18
2022-11-29T22:52:11.444Z,96.60
2022-11-29T22:54:40.327Z,96.81
2022-11-29T22:57:08.796Z,96.96
2022-11-29T22:59:37.164Z,97.02
2022-11-29T23:02:06.886Z,96.99
2022-11-29T23:04:37.395Z,96.70
2022-11-29T23:07:08.456Z,96.74
2022-11-29T23:09:36.935Z,97.11
2022-11-29T23:12:05.754Z,97.62
2022-11-29T23:14:34.123Z,97.24
2022-11-29T23:17:03.819Z,97.67
2022-11-29T23:19:32.319Z,97.36
2022-11-29T23:22:00.821Z,97.50
2022-11-29T23:24:29.944Z,97.85
2022-11-29T23:26:58.370Z,97.97
2022-11-29T23:29:26.859Z,98.28
2022-11-29T23:31:55.399Z,98.14
2022-11-29T23:34:23.929Z,97.78
2022-11-29T23:36:53.219Z,97.82
2022-11-29T23:39:22.085Z,97.72
2022-11-29T23:41:50.570Z,97.91
2022-11-29T23:44:19.030Z,97.86
2022-11-29T23:46:47.507Z,97.55
2022-11-29T23:49:15.917Z,97.99
2022-11-29T23:51:44.423Z,98.42
2022-11-29T23:54:12.899Z,98.52
2022-11-29T23:56:41.399Z,98.56
2022-11-29T23:59:09.897Z,98.58
